Aqaba Port, Jordan

11:31 PM EEST on July 27, 2016 (GMT +0300)
Aqaba International | | Change Station

Elev 174 ft 29.61 °N, 35.02 °E | Updated 31 minutes ago

Clear
Clear
93 °F
Feels Like 91 °F
N
16
Wind Variable Wind from North

Today
High -- | Low -- °F
--% Chance of Precip.
Yesterday
High -- | Low -- °F
Precip. -- in
Pressure 29.65 in
Visibility -9999.0 miles
Clouds
Heat Index 91 °F
Dew Point 54 °F
Humidity 26%
Rainfall 0.00 in
Snow Depth Not available.
5:57 AM 7:35 PM
Last Quarter, 40% visible
METAR OJAQ 272000Z 35014KT CAVOK 34/12 Q1004
Pressure 29.65 in
Visibility -9999.0 miles
Clouds
Heat Index 91 °F
Dew Point 54 °F
Humidity 26%
Rainfall 0.00 in
Snow Depth Not available.
5:57 AM 7:35 PM
Last Quarter, 40% visible
METAR OJAQ 272000Z 35014KT CAVOK 34/12 Q1004

10-Day Weather Forecast

No radar image for this location.
×

Almanac

Astronomy

Jul. 27, 2016 Rise Set
Actual Time
Civil Twilight
Nautical Twilight
Astronomical Twilight
Moon
Length of Visible Light
Length of Day
Tomorrow will be .
, % of the Moon is Illuminated

Today's Extremes

Country Highs Country Lows

Community

WunderPhotos

Upload Photos

1,927,933 photos uploaded!

WunderBlog® & News

Nearby

Air Quality

  Air Quality AQ Index Pollutant
Not available.

Snow Depth

Station Depth Elevation

Earthquake Activity

City Distance Mag. Time & Date
Minimum magnitude displayed is 2.5.

Coastal Water Temperatures

Place Temperature

Stations

Nearby Weather Stations

Station Location Temp. Windchill Dew Point Humidity Wind Precip. Elev Updated Type